sensor_id;sensor_type;location;lat;lon;timestamp;temperature;humidity
2663;DHT22;49701;48.072;7.800;2023-12-20T00:02:14;7.60;99.90
2663;DHT22;49701;48.072;7.800;2023-12-20T00:04:40;7.70;99.90
2663;DHT22;49701;48.072;7.800;2023-12-20T00:07:06;7.70;99.90
2663;DHT22;49701;48.072;7.800;2023-12-20T00:09:31;7.70;99.90
2663;DHT22;49701;48.072;7.800;2023-12-20T00:11:57;7.70;99.90
2663;DHT22;49701;48.072;7.800;2023-12-20T00:14:23;7.70;99.90
2663;DHT22;49701;48.072;7.800;2023-12-20T00:16:48;7.70;99.90
2663;DHT22;49701;48.072;7.800;2023-12-20T00:19:14;7.70;99.90
2663;DHT22;49701;48.072;7.800;2023-12-20T00:21:40;7.70;99.90
2663;DHT22;49701;48.072;7.800;2023-12-20T00:24:05;7.70;99.90
2663;DHT22;49701;48.072;7.800;2023-12-20T00:26:31;7.60;99.90
2663;DHT22;49701;48.072;7.800;2023-12-20T00:28:57;7.60;99.90
2663;DHT22;49701;48.072;7.800;2023-12-20T00:31:22;7.60;99.90
2663;DHT22;49701;48.072;7.800;2023-12-20T00:33:48;7.60;99.90
2663;DHT22;49701;48.072;7.800;2023-12-20T00:36:13;7.60;99.90
2663;DHT22;49701;48.072;7.800;2023-12-20T00:38:39;7.60;99.90
2663;DHT22;49701;48.072;7.800;2023-12-20T00:41:05;7.60;99.90
2663;DHT22;49701;48.072;7.800;2023-12-20T00:43:30;7.50;99.90
2663;DHT22;49701;48.072;7.800;2023-12-20T00:45:57;7.40;99.90
2663;DHT22;49701;48.072;7.800;2023-12-20T00:48:22;7.40;99.90
2663;DHT22;49701;48.072;7.800;2023-12-20T00:50:48;7.40;99.90
2663;DHT22;49701;48.072;7.800;2023-12-20T00:53:13;7.30;99.90
2663;DHT22;49701;48.072;7.800;2023-12-20T00:55:39;7.30;99.90
2663;DHT22;49701;48.072;7.800;2023-12-20T00:58:05;7.20;99.90
2663;DHT22;49701;48.072;7.800;2023-12-20T01:00:31;7.10;99.90
2663;DHT22;49701;48.072;7.800;2023-12-20T01:02:56;7.10;99.90
2663;DHT22;49701;48.072;7.800;2023-12-20T01:05:22;7.10;99.90
2663;DHT22;49701;48.072;7.800;2023-12-20T01:07:48;7.00;99.90
2663;DHT22;49701;48.072;7.800;2023-12-20T01:10:14;7.00;99.90
2663;DHT22;49701;48.072;7.800;2023-12-20T01:12:40;7.00;99.90
2663;DHT22;49701;48.072;7.800;2023-12-20T01:15:05;7.00;99.90
2663;DHT22;49701;48.072;7.800;2023-12-20T01:17:31;7.00;99.90
2663;DHT22;49701;48.072;7.800;2023-12-20T01:19:56;7.00;99.90
2663;DHT22;49701;48.072;7.800;2023-12-20T01:22:23;7.00;99.90
2663;DHT22;49701;48.072;7.800;2023-12-20T01:24:49;7.00;99.90
2663;DHT22;49701;48.072;7.800;2023-12-20T01:27:14;7.00;99.90
2663;DHT22;49701;48.072;7.800;2023-12-20T01:29:40;7.00;99.90
2663;DHT22;49701;48.072;7.800;2023-12-20T01:32:06;6.90;99.90
2663;DHT22;49701;48.072;7.800;2023-12-20T01:34:31;7.00;99.90
2663;DHT22;49701;48.072;7.800;2023-12-20T01:36:57;6.90;99.90
2663;DHT22;49701;48.072;7.800;2023-12-20T01:39:23;7.00;99.90
2663;DHT22;49701;48.072;7.800;2023-12-20T01:41:48;7.00;99.90
2663;DHT22;49701;48.072;7.800;2023-12-20T01:44:14;7.00;99.90
2663;DHT22;49701;48.072;7.800;2023-12-20T01:46:39;7.00;99.90
2663;DHT22;49701;48.072;7.800;2023-12-20T01:49:05;7.00;99.90
2663;DHT22;49701;48.072;7.800;2023-12-20T01:51:31;7.00;99.90
2663;DHT22;49701;48.072;7.800;2023-12-20T01:53:57;7.00;99.90
2663;DHT22;49701;48.072;7.800;2023-12-20T01:56:23;7.00;99.90
2663;DHT22;49701;48.072;7.800;2023-12-20T01:58:49;7.00;99.90
2663;DHT22;49701;48.072;7.800;2023-12-20T02:01:14;7.00;99.90
2663;DHT22;49701;48.072;7.800;2023-12-20T02:03:41;6.90;99.90
2663;DHT22;49701;48.072;7.800;2023-12-20T02:06:07;7.00;99.90
2663;DHT22;49701;48.072;7.800;2023-12-20T02:08:33;6.90;99.90
2663;DHT22;49701;48.072;7.800;2023-12-20T02:10:59;6.90;99.90
2663;DHT22;49701;48.072;7.800;2023-12-20T02:13:25;6.90;99.90
2663;DHT22;49701;48.072;7.800;2023-12-20T02:15:52;6.90;99.90
2663;DHT22;49701;48.072;7.800;2023-12-20T02:18:17;6.90;99.90
2663;DHT22;49701;48.072;7.800;2023-12-20T02:20:43;6.90;99.90
2663;DHT22;49701;48.072;7.800;2023-12-20T02:23:08;7.00;99.90
2663;DHT22;49701;48.072;7.800;2023-12-20T02:25:34;7.00;99.90
2663;DHT22;49701;48.072;7.800;2023-12-20T02:28:00;7.00;99.90
2663;DHT22;49701;48.072;7.800;2023-12-20T02:30:25;7.00;99.90
2663;DHT22;49701;48.072;7.800;2023-12-20T02:32:51;7.00;99.90
2663;DHT22;49701;48.072;7.800;2023-12-20T02:35:17;7.00;99.90
2663;DHT22;49701;48.072;7.800;2023-12-20T02:37:43;6.90;99.90
2663;DHT22;49701;48.072;7.800;2023-12-20T02:40:08;6.90;99.90
2663;DHT22;49701;48.072;7.800;2023-12-20T02:42:34;6.90;99.90
2663;DHT22;49701;48.072;7.800;2023-12-20T02:45:00;6.90;99.90
2663;DHT22;49701;48.072;7.800;2023-12-20T02:47:25;6.90;99.90
2663;DHT22;49701;48.072;7.800;2023-12-20T02:49:51;6.90;99.90
2663;DHT22;49701;48.072;7.800;2023-12-20T02:52:18;6.90;99.90
2663;DHT22;49701;48.072;7.800;2023-12-20T02:54:43;6.90;99.90
2663;DHT22;49701;48.072;7.800;2023-12-20T02:57:09;6.90;99.90
2663;DHT22;49701;48.072;7.800;2023-12-20T02:59:34;6.90;99.90
2663;DHT22;49701;48.072;7.800;2023-12-20T03:02:00;6.90;99.90
2663;DHT22;49701;48.072;7.800;2023-12-20T03:04:25;6.90;99.90
2663;DHT22;49701;48.072;7.800;2023-12-20T03:06:51;6.90;99.90
2663;DHT22;49701;48.072;7.800;2023-12-20T03:09:17;6.90;99.90
2663;DHT22;49701;48.072;7.800;2023-12-20T03:11:42;6.90;99.90
2663;DHT22;49701;48.072;7.800;2023-12-20T03:14:08;6.80;99.90
2663;DHT22;49701;48.072;7.800;2023-12-20T03:16:33;6.90;99.90
2663;DHT22;49701;48.072;7.800;2023-12-20T03:18:59;6.80;99.90
2663;DHT22;49701;48.072;7.800;2023-12-20T03:21:24;6.80;99.90
2663;DHT22;49701;48.072;7.800;2023-12-20T03:23:50;6.90;99.90
2663;DHT22;49701;48.072;7.800;2023-12-20T03:26:16;6.90;99.90
2663;DHT22;49701;48.072;7.800;2023-12-20T03:28:41;6.80;99.90
2663;DHT22;49701;48.072;7.800;2023-12-20T03:31:07;6.80;99.90
2663;DHT22;49701;48.072;7.800;2023-12-20T03:33:32;6.80;99.90
2663;DHT22;49701;48.072;7.800;2023-12-20T03:35:58;6.80;99.90
2663;DHT22;49701;48.072;7.800;2023-12-20T03:38:23;6.80;99.90
2663;DHT22;49701;48.072;7.800;2023-12-20T03:40:50;6.80;99.90
2663;DHT22;49701;48.072;7.800;2023-12-20T03:43:15;6.90;99.90
2663;DHT22;49701;48.072;7.800;2023-12-20T03:45:41;6.90;99.90
2663;DHT22;49701;48.072;7.800;2023-12-20T03:48:07;6.90;99.90
2663;DHT22;49701;48.072;7.800;2023-12-20T03:50:33;6.80;99.90
2663;DHT22;49701;48.072;7.800;2023-12-20T03:52:59;6.80;99.90
2663;DHT22;49701;48.072;7.800;2023-12-20T03:55:24;6.80;99.90
2663;DHT22;49701;48.072;7.800;2023-12-20T03:57:50;6.90;99.90
2663;DHT22;49701;48.072;7.800;2023-12-20T04:00:16;6.90;99.90
2663;DHT22;49701;48.072;7.800;2023-12-20T04:02:41;6.80;99.90
2663;DHT22;49701;48.072;7.800;2023-12-20T04:05:07;6.80;99.90
2663;DHT22;49701;48.072;7.800;2023-12-20T04:07:33;6.90;99.90
2663;DHT22;49701;48.072;7.800;2023-12-20T04:09:59;6.80;99.90
2663;DHT22;49701;48.072;7.800;2023-12-20T04:12:25;6.80;99.90
2663;DHT22;49701;48.072;7.800;2023-12-20T04:14:51;6.90;99.90
2663;DHT22;49701;48.072;7.800;2023-12-20T04:17:17;6.90;99.90
2663;DHT22;49701;48.072;7.800;2023-12-20T04:19:43;6.90;99.90
2663;DHT22;49701;48.072;7.800;2023-12-20T04:22:08;6.80;99.90
2663;DHT22;49701;48.072;7.800;2023-12-20T04:24:34;6.90;99.90
2663;DHT22;49701;48.072;7.800;2023-12-20T04:27:00;7.00;99.90
2663;DHT22;49701;48.072;7.800;2023-12-20T04:29:25;7.00;99.90
2663;DHT22;49701;48.072;7.800;2023-12-20T04:31:51;7.00;99.90
2663;DHT22;49701;48.072;7.800;2023-12-20T04:34:19;7.00;99.90
2663;DHT22;49701;48.072;7.800;2023-12-20T04:36:45;7.00;99.90
2663;DHT22;49701;48.072;7.800;2023-12-20T04:39:11;7.00;99.90
2663;DHT22;49701;48.072;7.800;2023-12-20T04:41:37;7.00;99.90
2663;DHT22;49701;48.072;7.800;2023-12-20T04:44:02;7.00;99.90
2663;DHT22;49701;48.072;7.800;2023-12-20T04:46:28;7.00;99.90
2663;DHT22;49701;48.072;7.800;2023-12-20T04:48:53;7.00;99.90
2663;DHT22;49701;48.072;7.800;2023-12-20T04:51:19;7.00;99.90
2663;DHT22;49701;48.072;7.800;2023-12-20T04:53:45;7.00;99.90
2663;DHT22;49701;48.072;7.800;2023-12-20T04:56:11;7.00;99.90
2663;DHT22;49701;48.072;7.800;2023-12-20T04:58:37;6.90;99.90
2663;DHT22;49701;48.072;7.800;2023-12-20T05:01:03;7.00;99.90
2663;DHT22;49701;48.072;7.800;2023-12-20T05:03:28;7.00;99.90
2663;DHT22;49701;48.072;7.800;2023-12-20T05:05:54;7.00;99.90
2663;DHT22;49701;48.072;7.800;2023-12-20T05:08:20;7.00;99.90
2663;DHT22;49701;48.072;7.800;2023-12-20T05:10:45;7.00;99.90
2663;DHT22;49701;48.072;7.800;2023-12-20T05:13:11;6.90;99.90
2663;DHT22;49701;48.072;7.800;2023-12-20T05:15:36;7.00;99.90
2663;DHT22;49701;48.072;7.800;2023-12-20T05:18:02;7.10;99.90
2663;DHT22;49701;48.072;7.800;2023-12-20T05:20:27;7.10;99.90
2663;DHT22;49701;48.072;7.800;2023-12-20T05:22:53;7.00;99.90
2663;DHT22;49701;48.072;7.800;2023-12-20T05:25:18;7.10;99.90
2663;DHT22;49701;48.072;7.800;2023-12-20T05:27:44;7.10;99.90
2663;DHT22;49701;48.072;7.800;2023-12-20T05:30:10;7.10;99.90
2663;DHT22;49701;48.072;7.800;2023-12-20T05:32:35;7.10;99.90
2663;DHT22;49701;48.072;7.800;2023-12-20T05:35:01;7.10;99.90
2663;DHT22;49701;48.072;7.800;2023-12-20T05:37:27;7.10;99.90
2663;DHT22;49701;48.072;7.800;2023-12-20T05:39:52;7.00;99.90
2663;DHT22;49701;48.072;7.800;2023-12-20T05:42:18;7.10;99.90
2663;DHT22;49701;48.072;7.800;2023-12-20T05:44:43;7.10;99.90
2663;DHT22;49701;48.072;7.800;2023-12-20T05:47:09;7.20;99.90
2663;DHT22;49701;48.072;7.800;2023-12-20T05:49:34;7.20;99.90
2663;DHT22;49701;48.072;7.800;2023-12-20T05:52:00;7.20;99.90
2663;DHT22;49701;48.072;7.800;2023-12-20T05:54:25;7.20;99.90
2663;DHT22;49701;48.072;7.800;2023-12-20T05:56:51;7.20;99.90
2663;DHT22;49701;48.072;7.800;2023-12-20T05:59:16;7.20;99.90
2663;DHT22;49701;48.072;7.800;2023-12-20T06:01:42;7.10;99.90
2663;DHT22;49701;48.072;7.800;2023-12-20T06:04:08;7.10;99.90
2663;DHT22;49701;48.072;7.800;2023-12-20T06:06:33;7.10;99.90
2663;DHT22;49701;48.072;7.800;2023-12-20T06:08:59;7.10;99.90
2663;DHT22;49701;48.072;7.800;2023-12-20T06:11:25;7.10;99.90
2663;DHT22;49701;48.072;7.800;2023-12-20T06:13:51;7.20;99.90
2663;DHT22;49701;48.072;7.800;2023-12-20T06:16:18;7.20;99.90
2663;DHT22;49701;48.072;7.800;2023-12-20T06:18:44;7.30;99.90
2663;DHT22;49701;48.072;7.800;2023-12-20T06:21:09;7.20;99.90
2663;DHT22;49701;48.072;7.800;2023-12-20T06:23:38;7.20;99.90
2663;DHT22;49701;48.072;7.800;2023-12-20T06:26:04;7.20;99.90
2663;DHT22;49701;48.072;7.800;2023-12-20T06:28:29;7.20;99.90
2663;DHT22;49701;48.072;7.800;2023-12-20T06:30:55;7.20;99.90
2663;DHT22;49701;48.072;7.800;2023-12-20T06:33:20;7.20;99.90
2663;DHT22;49701;48.072;7.800;2023-12-20T06:35:47;7.20;99.90
2663;DHT22;49701;48.072;7.800;2023-12-20T06:38:13;7.20;99.90
2663;DHT22;49701;48.072;7.800;2023-12-20T06:40:39;7.20;99.90
2663;DHT22;49701;48.072;7.800;2023-12-20T06:43:04;7.20;99.90
2663;DHT22;49701;48.072;7.800;2023-12-20T06:45:32;7.20;99.90
2663;DHT22;49701;48.072;7.800;2023-12-20T06:47:57;7.10;99.90
2663;DHT22;49701;48.072;7.800;2023-12-20T06:50:23;7.20;99.90
2663;DHT22;49701;48.072;7.800;2023-12-20T06:52:49;7.20;99.90
2663;DHT22;49701;48.072;7.800;2023-12-20T06:55:15;7.20;99.90
2663;DHT22;49701;48.072;7.800;2023-12-20T06:57:40;7.10;99.90
2663;DHT22;49701;48.072;7.800;2023-12-20T07:00:06;7.10;99.90
2663;DHT22;49701;48.072;7.800;2023-12-20T07:02:32;7.10;99.90
2663;DHT22;49701;48.072;7.800;2023-12-20T07:04:57;7.10;99.90
2663;DHT22;49701;48.072;7.800;2023-12-20T07:07:23;7.10;99.90
2663;DHT22;49701;48.072;7.800;2023-12-20T07:09:49;7.10;99.90
2663;DHT22;49701;48.072;7.800;2023-12-20T07:12:15;7.20;99.90
2663;DHT22;49701;48.072;7.800;2023-12-20T07:14:41;7.30;99.90
2663;DHT22;49701;48.072;7.800;2023-12-20T07:17:06;7.20;99.90
2663;DHT22;49701;48.072;7.800;2023-12-20T07:19:37;7.20;99.90
2663;DHT22;49701;48.072;7.800;2023-12-20T07:22:03;7.20;99.90
2663;DHT22;49701;48.072;7.800;2023-12-20T07:24:29;7.20;99.90
2663;DHT22;49701;48.072;7.800;2023-12-20T07:26:54;7.20;99.90
2663;DHT22;49701;48.072;7.800;2023-12-20T07:29:20;7.10;99.90
2663;DHT22;49701;48.072;7.800;2023-12-20T07:31:46;7.20;99.90
2663;DHT22;49701;48.072;7.800;2023-12-20T07:34:11;7.20;99.90
2663;DHT22;49701;48.072;7.800;2023-12-20T07:36:37;7.20;99.90
2663;DHT22;49701;48.072;7.800;2023-12-20T07:39:02;7.20;99.90
2663;DHT22;49701;48.072;7.800;2023-12-20T07:41:28;7.20;99.90
2663;DHT22;49701;48.072;7.800;2023-12-20T07:43:54;7.20;99.90
2663;DHT22;49701;48.072;7.800;2023-12-20T07:46:20;7.20;99.90
2663;DHT22;49701;48.072;7.800;2023-12-20T07:48:48;7.20;99.90
2663;DHT22;49701;48.072;7.800;2023-12-20T07:51:13;7.20;99.90
2663;DHT22;49701;48.072;7.800;2023-12-20T07:53:39;7.20;99.90
2663;DHT22;49701;48.072;7.800;2023-12-20T07:56:17;7.10;99.90
2663;DHT22;49701;48.072;7.800;2023-12-20T07:58:43;7.10;99.90
2663;DHT22;49701;48.072;7.800;2023-12-20T08:01:08;7.20;99.90
2663;DHT22;49701;48.072;7.800;2023-12-20T08:03:34;7.20;99.90
2663;DHT22;49701;48.072;7.800;2023-12-20T08:05:59;7.20;99.90
2663;DHT22;49701;48.072;7.800;2023-12-20T08:08:26;7.10;99.90
2663;DHT22;49701;48.072;7.800;2023-12-20T08:10:51;7.10;99.90
2663;DHT22;49701;48.072;7.800;2023-12-20T08:13:17;7.00;99.90
2663;DHT22;49701;48.072;7.800;2023-12-20T08:15:42;7.10;99.90
2663;DHT22;49701;48.072;7.800;2023-12-20T08:18:08;7.10;99.90
2663;DHT22;49701;48.072;7.800;2023-12-20T08:20:33;7.10;99.90
2663;DHT22;49701;48.072;7.800;2023-12-20T08:22:59;7.10;99.90
2663;DHT22;49701;48.072;7.800;2023-12-20T08:25:24;7.10;99.90
2663;DHT22;49701;48.072;7.800;2023-12-20T08:27:50;7.10;99.90
2663;DHT22;49701;48.072;7.800;2023-12-20T08:30:15;7.10;99.90
2663;DHT22;49701;48.072;7.800;2023-12-20T08:32:46;7.10;99.90
2663;DHT22;49701;48.072;7.800;2023-12-20T08:35:11;7.20;99.90
2663;DHT22;49701;48.072;7.800;2023-12-20T08:37:37;7.20;99.90
2663;DHT22;49701;48.072;7.800;2023-12-20T08:40:02;7.20;99.90
2663;DHT22;49701;48.072;7.800;2023-12-20T08:42:28;7.20;99.90
2663;DHT22;49701;48.072;7.800;2023-12-20T08:44:57;7.20;99.90
2663;DHT22;49701;48.072;7.800;2023-12-20T08:47:23;7.20;99.90
2663;DHT22;49701;48.072;7.800;2023-12-20T08:49:49;7.30;99.90
2663;DHT22;49701;48.072;7.800;2023-12-20T08:52:15;7.30;99.90
2663;DHT22;49701;48.072;7.800;2023-12-20T08:54:40;7.40;99.90
2663;DHT22;49701;48.072;7.800;2023-12-20T08:57:06;7.40;99.90
2663;DHT22;49701;48.072;7.800;2023-12-20T08:59:32;7.40;99.90
2663;DHT22;49701;48.072;7.800;2023-12-20T09:01:58;7.30;99.90
2663;DHT22;49701;48.072;7.800;2023-12-20T09:04:23;7.40;99.90
2663;DHT22;49701;48.072;7.800;2023-12-20T09:06:49;7.40;99.90
2663;DHT22;49701;48.072;7.800;2023-12-20T09:09:15;7.50;99.90
2663;DHT22;49701;48.072;7.800;2023-12-20T09:11:40;7.50;99.90
2663;DHT22;49701;48.072;7.800;2023-12-20T09:14:07;7.50;99.90
2663;DHT22;49701;48.072;7.800;2023-12-20T09:16:33;7.50;99.90
2663;DHT22;49701;48.072;7.800;2023-12-20T09:18:58;7.50;99.90
2663;DHT22;49701;48.072;7.800;2023-12-20T09:21:24;7.50;99.90
2663;DHT22;49701;48.072;7.800;2023-12-20T09:23:50;7.50;99.90
2663;DHT22;49701;48.072;7.800;2023-12-20T09:26:15;7.50;99.90
2663;DHT22;49701;48.072;7.800;2023-12-20T09:28:41;7.50;99.90
2663;DHT22;49701;48.072;7.800;2023-12-20T09:31:07;7.50;99.90
2663;DHT22;49701;48.072;7.800;2023-12-20T09:33:32;7.60;99.90
2663;DHT22;49701;48.072;7.800;2023-12-20T09:35:58;7.70;99.90
2663;DHT22;49701;48.072;7.800;2023-12-20T09:38:24;7.70;99.90
2663;DHT22;49701;48.072;7.800;2023-12-20T09:40:50;7.80;99.90
2663;DHT22;49701;48.072;7.800;2023-12-20T09:43:15;7.90;99.90
2663;DHT22;49701;48.072;7.800;2023-12-20T09:45:45;7.90;99.90
2663;DHT22;49701;48.072;7.800;2023-12-20T09:48:11;7.80;99.90
2663;DHT22;49701;48.072;7.800;2023-12-20T09:50:37;7.90;99.90
2663;DHT22;49701;48.072;7.800;2023-12-20T09:53:03;8.40;99.90
2663;DHT22;49701;48.072;7.800;2023-12-20T09:55:30;9.10;99.90
2663;DHT22;49701;48.072;7.800;2023-12-20T09:57:57;9.70;99.90
2663;DHT22;49701;48.072;7.800;2023-12-20T10:00:23;10.00;99.90
2663;DHT22;49701;48.072;7.800;2023-12-20T10:05:17;9.80;99.90
2663;DHT22;49701;48.072;7.800;2023-12-20T10:07:46;9.90;99.90
2663;DHT22;49701;48.072;7.800;2023-12-20T10:10:13;10.20;99.90
2663;DHT22;49701;48.072;7.800;2023-12-20T10:12:38;10.20;99.90
2663;DHT22;49701;48.072;7.800;2023-12-20T10:15:05;10.00;99.90
2663;DHT22;49701;48.072;7.800;2023-12-20T10:17:30;10.20;99.90
2663;DHT22;49701;48.072;7.800;2023-12-20T10:19:57;10.70;99.90
2663;DHT22;49701;48.072;7.800;2023-12-20T10:22:23;11.50;99.90
2663;DHT22;49701;48.072;7.800;2023-12-20T10:24:49;12.20;99.90
2663;DHT22;49701;48.072;7.800;2023-12-20T10:27:14;12.00;99.90
2663;DHT22;49701;48.072;7.800;2023-12-20T10:29:44;11.60;99.90
2663;DHT22;49701;48.072;7.800;2023-12-20T10:32:23;11.30;99.90
2663;DHT22;49701;48.072;7.800;2023-12-20T10:34:49;11.30;99.90
2663;DHT22;49701;48.072;7.800;2023-12-20T10:37:15;11.40;99.90
2663;DHT22;49701;48.072;7.800;2023-12-20T10:39:41;11.90;99.90
2663;DHT22;49701;48.072;7.800;2023-12-20T10:42:08;12.60;99.90
2663;DHT22;49701;48.072;7.800;2023-12-20T10:44:34;13.00;99.90
2663;DHT22;49701;48.072;7.800;2023-12-20T10:47:02;13.00;99.90
2663;DHT22;49701;48.072;7.800;2023-12-20T10:49:29;13.10;99.90
2663;DHT22;49701;48.072;7.800;2023-12-20T10:51:55;13.60;99.90
2663;DHT22;49701;48.072;7.800;2023-12-20T10:54:22;14.50;99.90
2663;DHT22;49701;48.072;7.800;2023-12-20T10:56:48;15.10;99.90
2663;DHT22;49701;48.072;7.800;2023-12-20T10:59:14;15.70;99.90
2663;DHT22;49701;48.072;7.800;2023-12-20T11:01:41;15.70;99.90
2663;DHT22;49701;48.072;7.800;2023-12-20T11:04:08;15.50;99.90
2663;DHT22;49701;48.072;7.800;2023-12-20T11:06:36;15.00;99.90
2663;DHT22;49701;48.072;7.800;2023-12-20T11:14:30;14.90;99.90
2663;DHT22;49701;48.072;7.800;2023-12-20T11:17:06;15.30;99.90
2663;DHT22;49701;48.072;7.800;2023-12-20T11:19:32;15.60;99.90
2663;DHT22;49701;48.072;7.800;2023-12-20T11:21:58;15.70;99.90
2663;DHT22;49701;48.072;7.800;2023-12-20T11:24:23;15.10;99.90
2663;DHT22;49701;48.072;7.800;2023-12-20T11:26:50;14.40;99.90
2663;DHT22;49701;48.072;7.800;2023-12-20T11:29:33;14.10;99.90
2663;DHT22;49701;48.072;7.800;2023-12-20T11:32:00;13.70;99.90
2663;DHT22;49701;48.072;7.800;2023-12-20T11:34:31;14.20;99.90
2663;DHT22;49701;48.072;7.800;2023-12-20T11:36:57;14.80;99.90
2663;DHT22;49701;48.072;7.800;2023-12-20T11:39:27;15.10;99.90
2663;DHT22;49701;48.072;7.800;2023-12-20T11:41:55;14.90;99.90
2663;DHT22;49701;48.072;7.800;2023-12-20T11:44:27;14.70;99.90
2663;DHT22;49701;48.072;7.800;2023-12-20T11:47:03;14.80;99.90
2663;DHT22;49701;48.072;7.800;2023-12-20T11:49:29;14.70;99.90
2663;DHT22;49701;48.072;7.800;2023-12-20T11:51:57;14.40;99.90
2663;DHT22;49701;48.072;7.800;2023-12-20T11:54:22;14.40;99.90
2663;DHT22;49701;48.072;7.800;2023-12-20T11:56:48;14.50;99.90
2663;DHT22;49701;48.072;7.800;2023-12-20T11:59:14;14.00;99.90
2663;DHT22;49701;48.072;7.800;2023-12-20T12:01:40;13.40;99.90
2663;DHT22;49701;48.072;7.800;2023-12-20T12:04:12;13.00;99.90
2663;DHT22;49701;48.072;7.800;2023-12-20T12:06:38;12.60;99.90
2663;DHT22;49701;48.072;7.800;2023-12-20T12:09:04;12.30;99.90
2663;DHT22;49701;48.072;7.800;2023-12-20T12:11:30;12.10;99.90
2663;DHT22;49701;48.072;7.800;2023-12-20T12:13:55;11.90;99.90
2663;DHT22;49701;48.072;7.800;2023-12-20T12:16:21;11.60;99.90
2663;DHT22;49701;48.072;7.800;2023-12-20T12:18:54;11.20;99.90
2663;DHT22;49701;48.072;7.800;2023-12-20T12:21:20;10.80;99.90
2663;DHT22;49701;48.072;7.800;2023-12-20T12:23:46;10.50;99.90
2663;DHT22;49701;48.072;7.800;2023-12-20T12:26:11;10.30;99.90
2663;DHT22;49701;48.072;7.800;2023-12-20T12:28:39;10.20;99.90
2663;DHT22;49701;48.072;7.800;2023-12-20T12:31:05;10.00;99.90
2663;DHT22;49701;48.072;7.800;2023-12-20T12:33:30;9.80;99.90
2663;DHT22;49701;48.072;7.800;2023-12-20T12:35:56;9.60;99.90
2663;DHT22;49701;48.072;7.800;2023-12-20T12:38:22;9.50;99.90
2663;DHT22;49701;48.072;7.800;2023-12-20T12:40:49;9.50;99.90
2663;DHT22;49701;48.072;7.800;2023-12-20T12:43:15;9.30;99.90
2663;DHT22;49701;48.072;7.800;2023-12-20T12:45:41;9.30;99.90
2663;DHT22;49701;48.072;7.800;2023-12-20T12:48:06;9.30;99.90
2663;DHT22;49701;48.072;7.800;2023-12-20T12:50:32;9.40;99.90
2663;DHT22;49701;48.072;7.800;2023-12-20T12:52:57;9.40;99.90
2663;DHT22;49701;48.072;7.800;2023-12-20T12:55:23;9.40;99.90
2663;DHT22;49701;48.072;7.800;2023-12-20T12:57:49;9.30;99.90
2663;DHT22;49701;48.072;7.800;2023-12-20T13:00:14;9.30;99.90
2663;DHT22;49701;48.072;7.800;2023-12-20T13:02:40;9.20;99.90
2663;DHT22;49701;48.072;7.800;2023-12-20T13:05:08;9.10;99.90
2663;DHT22;49701;48.072;7.800;2023-12-20T13:07:34;9.00;99.90
2663;DHT22;49701;48.072;7.800;2023-12-20T13:09:59;8.90;99.90
2663;DHT22;49701;48.072;7.800;2023-12-20T13:12:25;9.00;99.90
2663;DHT22;49701;48.072;7.800;2023-12-20T13:14:51;8.90;99.90
2663;DHT22;49701;48.072;7.800;2023-12-20T13:17:16;8.90;99.90
2663;DHT22;49701;48.072;7.800;2023-12-20T13:19:42;8.90;99.90
2663;DHT22;49701;48.072;7.800;2023-12-20T13:22:08;8.90;99.90
2663;DHT22;49701;48.072;7.800;2023-12-20T13:24:34;8.90;99.90
2663;DHT22;49701;48.072;7.800;2023-12-20T13:26:59;8.90;99.90
2663;DHT22;49701;48.072;7.800;2023-12-20T13:29:25;8.90;99.90
2663;DHT22;49701;48.072;7.800;2023-12-20T13:31:53;8.90;99.90
2663;DHT22;49701;48.072;7.800;2023-12-20T13:34:19;8.90;99.90
2663;DHT22;49701;48.072;7.800;2023-12-20T13:36:45;8.80;99.90
2663;DHT22;49701;48.072;7.800;2023-12-20T13:39:15;9.00;99.90
2663;DHT22;49701;48.072;7.800;2023-12-20T13:41:40;9.30;99.90
2663;DHT22;49701;48.072;7.800;2023-12-20T13:44:06;9.30;99.90
2663;DHT22;49701;48.072;7.800;2023-12-20T13:46:32;9.30;99.90
2663;DHT22;49701;48.072;7.800;2023-12-20T13:48:57;9.30;99.90
2663;DHT22;49701;48.072;7.800;2023-12-20T13:51:23;9.50;99.90
2663;DHT22;49701;48.072;7.800;2023-12-20T13:53:48;10.30;99.90
2663;DHT22;49701;48.072;7.800;2023-12-20T13:56:14;10.60;99.90
2663;DHT22;49701;48.072;7.800;2023-12-20T13:58:40;10.50;99.90
2663;DHT22;49701;48.072;7.800;2023-12-20T14:01:07;10.20;99.90
2663;DHT22;49701;48.072;7.800;2023-12-20T14:03:33;10.00;99.90
2663;DHT22;49701;48.072;7.800;2023-12-20T14:06:01;9.90;99.90
2663;DHT22;49701;48.072;7.800;2023-12-20T14:08:30;9.70;99.90
2663;DHT22;49701;48.072;7.800;2023-12-20T14:10:55;9.50;99.90
2663;DHT22;49701;48.072;7.800;2023-12-20T14:13:24;9.40;99.90
2663;DHT22;49701;48.072;7.800;2023-12-20T14:15:49;9.30;99.90
2663;DHT22;49701;48.072;7.800;2023-12-20T14:18:15;9.20;99.90
2663;DHT22;49701;48.072;7.800;2023-12-20T14:20:40;9.10;99.90
2663;DHT22;49701;48.072;7.800;2023-12-20T14:23:08;9.00;99.90
2663;DHT22;49701;48.072;7.800;2023-12-20T14:25:35;8.90;99.90
2663;DHT22;49701;48.072;7.800;2023-12-20T14:28:03;8.90;99.90
2663;DHT22;49701;48.072;7.800;2023-12-20T14:30:28;8.80;99.90
2663;DHT22;49701;48.072;7.800;2023-12-20T14:32:54;8.60;99.90
2663;DHT22;49701;48.072;7.800;2023-12-20T14:35:19;8.70;99.90
2663;DHT22;49701;48.072;7.800;2023-12-20T14:37:45;8.70;99.90
2663;DHT22;49701;48.072;7.800;2023-12-20T14:40:11;8.60;99.90
2663;DHT22;49701;48.072;7.800;2023-12-20T14:42:41;8.50;99.90
2663;DHT22;49701;48.072;7.800;2023-12-20T14:45:07;8.50;99.90
2663;DHT22;49701;48.072;7.800;2023-12-20T14:47:33;8.50;99.90
2663;DHT22;49701;48.072;7.800;2023-12-20T14:49:58;8.50;99.90
2663;DHT22;49701;48.072;7.800;2023-12-20T14:52:24;8.50;99.90
2663;DHT22;49701;48.072;7.800;2023-12-20T14:54:49;8.50;99.90
2663;DHT22;49701;48.072;7.800;2023-12-20T14:57:15;8.50;99.90
2663;DHT22;49701;48.072;7.800;2023-12-20T15:05:16;8.50;99.90
2663;DHT22;49701;48.072;7.800;2023-12-20T15:07:43;8.40;99.90
2663;DHT22;49701;48.072;7.800;2023-12-20T15:10:08;8.40;99.90
2663;DHT22;49701;48.072;7.800;2023-12-20T15:12:34;8.40;99.90
2663;DHT22;49701;48.072;7.800;2023-12-20T15:15:00;8.40;99.90
2663;DHT22;49701;48.072;7.800;2023-12-20T15:17:25;8.30;99.90
2663;DHT22;49701;48.072;7.800;2023-12-20T15:19:52;8.30;99.90
2663;DHT22;49701;48.072;7.800;2023-12-20T15:22:17;8.20;99.90
2663;DHT22;49701;48.072;7.800;2023-12-20T15:24:43;8.10;99.90
2663;DHT22;49701;48.072;7.800;2023-12-20T15:27:11;8.10;99.90
2663;DHT22;49701;48.072;7.800;2023-12-20T15:29:37;8.00;99.90
2663;DHT22;49701;48.072;7.800;2023-12-20T15:32:02;8.00;99.90
2663;DHT22;49701;48.072;7.800;2023-12-20T15:34:29;7.90;99.90
2663;DHT22;49701;48.072;7.800;2023-12-20T15:36:55;7.80;99.90
2663;DHT22;49701;48.072;7.800;2023-12-20T15:39:20;7.70;99.90
2663;DHT22;49701;48.072;7.800;2023-12-20T15:41:46;7.70;99.90
2663;DHT22;49701;48.072;7.800;2023-12-20T15:44:12;7.60;99.90
2663;DHT22;49701;48.072;7.800;2023-12-20T15:46:38;7.60;99.90
2663;DHT22;49701;48.072;7.800;2023-12-20T15:49:03;7.60;99.90
2663;DHT22;49701;48.072;7.800;2023-12-20T15:51:29;7.50;99.90
2663;DHT22;49701;48.072;7.800;2023-12-20T15:53:55;7.50;99.90
2663;DHT22;49701;48.072;7.800;2023-12-20T15:56:20;7.50;99.90
2663;DHT22;49701;48.072;7.800;2023-12-20T15:58:46;7.40;99.90
2663;DHT22;49701;48.072;7.800;2023-12-20T16:01:17;7.40;99.90
2663;DHT22;49701;48.072;7.800;2023-12-20T16:03:43;7.30;99.90
2663;DHT22;49701;48.072;7.800;2023-12-20T16:06:09;7.30;99.90